sensor_id;sensor_type;location;lat;lon;timestamp;pressure;altitude;pressure_sealevel;temperature;humidity
23172;BME280;11754;42.664;23.594;2024-01-25T00:00:13;95925.84;;;4.36;61.84
23172;BME280;11754;42.664;23.594;2024-01-25T00:02:38;95933.72;;;4.47;60.91
23172;BME280;11754;42.664;23.594;2024-01-25T00:05:04;95937.53;;;4.54;60.98
23172;BME280;11754;42.664;23.594;2024-01-25T00:07:29;95929.56;;;4.45;61.42
23172;BME280;11754;42.664;23.594;2024-01-25T00:09:55;95931.34;;;4.55;60.44
23172;BME280;11754;42.664;23.594;2024-01-25T00:12:20;95911.28;;;4.56;61.01
23172;BME280;11754;42.664;23.594;2024-01-25T00:14:45;95906.13;;;4.21;62.20
23172;BME280;11754;42.664;23.594;2024-01-25T00:17:10;95887.00;;;3.87;63.57
23172;BME280;11754;42.664;23.594;2024-01-25T00:19:36;95873.00;;;3.52;64.92
23172;BME280;11754;42.664;23.594;2024-01-25T00:22:01;95872.56;;;3.34;66.09
23172;BME280;11754;42.664;23.594;2024-01-25T00:24:26;95871.53;;;2.89;68.60
23172;BME280;11754;42.664;23.594;2024-01-25T00:26:52;95880.56;;;2.96;67.85
23172;BME280;11754;42.664;23.594;2024-01-25T00:29:17;95892.88;;;2.94;68.35
23172;BME280;11754;42.664;23.594;2024-01-25T00:31:42;95881.25;;;3.11;67.43
23172;BME280;11754;42.664;23.594;2024-01-25T00:34:08;95864.53;;;3.13;67.44
23172;BME280;11754;42.664;23.594;2024-01-25T00:36:33;95854.41;;;2.98;68.28
23172;BME280;11754;42.664;23.594;2024-01-25T00:38:58;95859.22;;;2.91;68.40
23172;BME280;11754;42.664;23.594;2024-01-25T00:41:24;95870.69;;;3.12;67.58
23172;BME280;11754;42.664;23.594;2024-01-25T00:43:49;95867.31;;;3.23;67.22
23172;BME280;11754;42.664;23.594;2024-01-25T00:46:15;95862.50;;;3.30;66.68
23172;BME280;11754;42.664;23.594;2024-01-25T00:48:40;95857.06;;;3.33;66.48
23172;BME280;11754;42.664;23.594;2024-01-25T00:51:07;95857.72;;;3.24;67.06
23172;BME280;11754;42.664;23.594;2024-01-25T00:53:33;95859.63;;;3.22;67.07
23172;BME280;11754;42.664;23.594;2024-01-25T00:55:59;95857.94;;;3.21;66.84
23172;BME280;11754;42.664;23.594;2024-01-25T00:58:24;95859.63;;;3.22;67.19
23172;BME280;11754;42.664;23.594;2024-01-25T01:00:49;95859.63;;;3.22;67.01
23172;BME280;11754;42.664;23.594;2024-01-25T01:03:15;95855.69;;;3.51;66.26
23172;BME280;11754;42.664;23.594;2024-01-25T01:05:43;95865.44;;;3.60;65.76
23172;BME280;11754;42.664;23.594;2024-01-25T01:08:08;95852.31;;;3.73;65.50
23172;BME280;11754;42.664;23.594;2024-01-25T01:10:34;95863.88;;;3.93;65.03
23172;BME280;11754;42.664;23.594;2024-01-25T01:12:59;95868.72;;;3.87;64.79
23172;BME280;11754;42.664;23.594;2024-01-25T01:15:24;95865.78;;;4.02;64.57
23172;BME280;11754;42.664;23.594;2024-01-25T01:17:49;95862.22;;;4.15;64.15
23172;BME280;11754;42.664;23.594;2024-01-25T01:20:15;95843.97;;;4.26;63.28
23172;BME280;11754;42.664;23.594;2024-01-25T01:22:40;95845.50;;;4.28;62.96
23172;BME280;11754;42.664;23.594;2024-01-25T01:25:05;95850.34;;;4.22;63.20
23172;BME280;11754;42.664;23.594;2024-01-25T01:27:31;95847.34;;;3.93;64.05
23172;BME280;11754;42.664;23.594;2024-01-25T01:29:56;95843.31;;;3.89;64.01
23172;BME280;11754;42.664;23.594;2024-01-25T01:32:21;95829.75;;;3.61;64.97
23172;BME280;11754;42.664;23.594;2024-01-25T01:34:46;95827.69;;;3.53;65.94
23172;BME280;11754;42.664;23.594;2024-01-25T01:37:12;95807.31;;;3.47;66.14
23172;BME280;11754;42.664;23.594;2024-01-25T01:39:37;95816.63;;;3.74;65.27
23172;BME280;11754;42.664;23.594;2024-01-25T01:42:02;95806.94;;;3.98;64.67
23172;BME280;11754;42.664;23.594;2024-01-25T01:44:28;95791.13;;;4.11;64.06
23172;BME280;11754;42.664;23.594;2024-01-25T01:46:54;95794.59;;;4.00;64.00
23172;BME280;11754;42.664;23.594;2024-01-25T01:49:20;95795.28;;;3.91;64.51
23172;BME280;11754;42.664;23.594;2024-01-25T01:51:45;95787.69;;;3.99;64.16
23172;BME280;11754;42.664;23.594;2024-01-25T01:54:10;95778.81;;;4.13;64.11
23172;BME280;11754;42.664;23.594;2024-01-25T01:56:36;95785.09;;;4.33;63.74
23172;BME280;11754;42.664;23.594;2024-01-25T01:59:02;95782.47;;;4.44;63.42
23172;BME280;11754;42.664;23.594;2024-01-25T02:01:27;95776.41;;;4.44;63.22
23172;BME280;11754;42.664;23.594;2024-01-25T02:03:53;95780.13;;;4.19;64.36
23172;BME280;11754;42.664;23.594;2024-01-25T02:06:19;95768.81;;;3.62;65.56
23172;BME280;11754;42.664;23.594;2024-01-25T02:08:45;95767.28;;;3.71;65.48
23172;BME280;11754;42.664;23.594;2024-01-25T02:11:13;95766.59;;;4.02;64.92
23172;BME280;11754;42.664;23.594;2024-01-25T02:13:38;95772.53;;;4.16;64.51
23172;BME280;11754;42.664;23.594;2024-01-25T02:16:04;95761.84;;;4.19;64.82
23172;BME280;11754;42.664;23.594;2024-01-25T02:18:33;95762.75;;;4.29;64.33
23172;BME280;11754;42.664;23.594;2024-01-25T02:20:58;95768.13;;;4.16;64.57
23172;BME280;11754;42.664;23.594;2024-01-25T02:23:23;95765.38;;;4.18;64.40
23172;BME280;11754;42.664;23.594;2024-01-25T02:25:49;95755.44;;;4.12;64.64
23172;BME280;11754;42.664;23.594;2024-01-25T02:28:14;95763.50;;;3.86;65.51
23172;BME280;11754;42.664;23.594;2024-01-25T02:30:39;95762.28;;;3.68;66.14
23172;BME280;11754;42.664;23.594;2024-01-25T02:33:04;95763.84;;;3.81;65.94
23172;BME280;11754;42.664;23.594;2024-01-25T02:35:30;95764.56;;;3.95;65.29
23172;BME280;11754;42.664;23.594;2024-01-25T02:37:55;95765.16;;;3.76;66.01
23172;BME280;11754;42.664;23.594;2024-01-25T02:40:20;95755.38;;;3.44;66.68
23172;BME280;11754;42.664;23.594;2024-01-25T02:42:45;95745.69;;;3.57;66.44
23172;BME280;11754;42.664;23.594;2024-01-25T02:45:11;95746.78;;;3.77;66.26
23172;BME280;11754;42.664;23.594;2024-01-25T02:47:36;95749.94;;;4.15;65.14
23172;BME280;11754;42.664;23.594;2024-01-25T02:50:01;95748.19;;;4.26;64.11
23172;BME280;11754;42.664;23.594;2024-01-25T02:52:26;95741.44;;;4.13;64.77
23172;BME280;11754;42.664;23.594;2024-01-25T02:54:52;95751.38;;;4.07;64.61
23172;BME280;11754;42.664;23.594;2024-01-25T02:57:17;95752.56;;;4.03;65.14
23172;BME280;11754;42.664;23.594;2024-01-25T02:59:43;95752.09;;;4.09;65.29
23172;BME280;11754;42.664;23.594;2024-01-25T03:02:08;95742.13;;;4.15;64.98
23172;BME280;11754;42.664;23.594;2024-01-25T03:04:33;95732.63;;;4.14;64.73
23172;BME280;11754;42.664;23.594;2024-01-25T03:06:58;95735.94;;;4.38;64.48
23172;BME280;11754;42.664;23.594;2024-01-25T03:09:23;95731.31;;;4.74;62.88
23172;BME280;11754;42.664;23.594;2024-01-25T03:11:49;95745.38;;;4.62;62.98
23172;BME280;11754;42.664;23.594;2024-01-25T03:14:14;95749.41;;;4.66;63.56
23172;BME280;11754;42.664;23.594;2024-01-25T03:16:40;95750.13;;;4.56;63.85
23172;BME280;11754;42.664;23.594;2024-01-25T03:19:05;95758.81;;;4.46;64.04
23172;BME280;11754;42.664;23.594;2024-01-25T03:21:30;95738.19;;;4.75;63.40
23172;BME280;11754;42.664;23.594;2024-01-25T03:23:55;95743.75;;;4.49;63.72
23172;BME280;11754;42.664;23.594;2024-01-25T03:26:21;95759.06;;;4.43;64.08
23172;BME280;11754;42.664;23.594;2024-01-25T03:28:46;95749.81;;;4.39;64.83
23172;BME280;11754;42.664;23.594;2024-01-25T03:31:11;95738.38;;;4.62;63.58
23172;BME280;11754;42.664;23.594;2024-01-25T03:33:36;95744.47;;;4.51;63.43
23172;BME280;11754;42.664;23.594;2024-01-25T03:36:02;95754.66;;;4.43;64.38
23172;BME280;11754;42.664;23.594;2024-01-25T03:38:28;95757.97;;;4.56;63.79
23172;BME280;11754;42.664;23.594;2024-01-25T03:40:53;95751.13;;;4.44;63.55
23172;BME280;11754;42.664;23.594;2024-01-25T03:43:19;95731.19;;;4.32;64.42
23172;BME280;11754;42.664;23.594;2024-01-25T03:45:44;95741.44;;;4.13;65.00
23172;BME280;11754;42.664;23.594;2024-01-25T03:48:09;95723.16;;;4.13;65.38
23172;BME280;11754;42.664;23.594;2024-01-25T03:50:35;95724.34;;;4.20;64.87
23172;BME280;11754;42.664;23.594;2024-01-25T03:53:00;95717.28;;;4.43;64.36
23172;BME280;11754;42.664;23.594;2024-01-25T03:55:25;95706.44;;;4.58;63.42
23172;BME280;11754;42.664;23.594;2024-01-25T03:57:50;95692.50;;;4.69;63.17
23172;BME280;11754;42.664;23.594;2024-01-25T04:00:16;95695.78;;;4.39;64.34
23172;BME280;11754;42.664;23.594;2024-01-25T04:02:41;95710.66;;;4.27;65.01
23172;BME280;11754;42.664;23.594;2024-01-25T04:05:06;95709.09;;;4.47;64.44
23172;BME280;11754;42.664;23.594;2024-01-25T04:07:32;95720.91;;;4.63;64.44
23172;BME280;11754;42.664;23.594;2024-01-25T04:09:57;95714.72;;;4.64;64.96
23172;BME280;11754;42.664;23.594;2024-01-25T04:12:22;95712.06;;;4.75;64.48
23172;BME280;11754;42.664;23.594;2024-01-25T04:14:50;95713.88;;;4.31;65.54
23172;BME280;11754;42.664;23.594;2024-01-25T04:17:15;95699.25;;;4.28;66.00
23172;BME280;11754;42.664;23.594;2024-01-25T04:19:40;95713.41;;;4.03;66.25
23172;BME280;11754;42.664;23.594;2024-01-25T04:22:05;95703.22;;;4.12;66.49
23172;BME280;11754;42.664;23.594;2024-01-25T04:24:31;95700.59;;;4.23;65.99
23172;BME280;11754;42.664;23.594;2024-01-25T04:26:56;95706.66;;;4.23;65.09
23172;BME280;11754;42.664;23.594;2024-01-25T04:29:21;95702.72;;;4.18;65.62
23172;BME280;11754;42.664;23.594;2024-01-25T04:31:47;95687.44;;;4.56;64.06
23172;BME280;11754;42.664;23.594;2024-01-25T04:34:13;95682.78;;;4.60;63.15
23172;BME280;11754;42.664;23.594;2024-01-25T04:36:39;95685.69;;;4.46;64.13
23172;BME280;11754;42.664;23.594;2024-01-25T04:39:04;95670.75;;;4.69;63.52
23172;BME280;11754;42.664;23.594;2024-01-25T04:41:29;95683.56;;;4.51;63.08
23172;BME280;11754;42.664;23.594;2024-01-25T04:43:54;95678.00;;;4.44;63.67
23172;BME280;11754;42.664;23.594;2024-01-25T04:46:20;95697.41;;;4.63;62.60
23172;BME280;11754;42.664;23.594;2024-01-25T04:48:45;95698.81;;;4.67;62.99
23172;BME280;11754;42.664;23.594;2024-01-25T04:51:17;95713.81;;;4.53;62.69
23172;BME280;11754;42.664;23.594;2024-01-25T04:53:42;95726.94;;;4.20;63.95
23172;BME280;11754;42.664;23.594;2024-01-25T04:56:07;95715.28;;;4.35;63.75
23172;BME280;11754;42.664;23.594;2024-01-25T04:58:33;95707.91;;;4.29;64.07
23172;BME280;11754;42.664;23.594;2024-01-25T05:00:58;95725.84;;;4.45;64.23
23172;BME280;11754;42.664;23.594;2024-01-25T05:03:24;95730.69;;;4.49;63.77
23172;BME280;11754;42.664;23.594;2024-01-25T05:05:50;95723.59;;;4.40;64.40
23172;BME280;11754;42.664;23.594;2024-01-25T05:08:15;95720.47;;;4.46;63.90
23172;BME280;11754;42.664;23.594;2024-01-25T05:10:40;95728.16;;;4.04;65.66
23172;BME280;11754;42.664;23.594;2024-01-25T05:13:06;95732.91;;;3.88;66.13
23172;BME280;11754;42.664;23.594;2024-01-25T05:15:31;95737.88;;;3.80;66.91
23172;BME280;11754;42.664;23.594;2024-01-25T05:17:56;95748.66;;;4.09;66.39
23172;BME280;11754;42.664;23.594;2024-01-25T05:20:21;95746.78;;;4.22;65.01
23172;BME280;11754;42.664;23.594;2024-01-25T05:22:47;95756.94;;;4.25;65.48
23172;BME280;11754;42.664;23.594;2024-01-25T05:25:12;95760.63;;;4.34;64.56
23172;BME280;11754;42.664;23.594;2024-01-25T05:27:37;95772.13;;;4.31;65.44
23172;BME280;11754;42.664;23.594;2024-01-25T05:30:03;95784.59;;;4.39;65.09
23172;BME280;11754;42.664;23.594;2024-01-25T05:32:29;95785.06;;;4.44;64.79
23172;BME280;11754;42.664;23.594;2024-01-25T05:34:55;95771.41;;;4.52;64.52
23172;BME280;11754;42.664;23.594;2024-01-25T05:37:20;95773.53;;;4.58;63.96
23172;BME280;11754;42.664;23.594;2024-01-25T05:39:45;95785.34;;;4.30;64.94
23172;BME280;11754;42.664;23.594;2024-01-25T05:42:11;95790.75;;;3.59;68.10
23172;BME280;11754;42.664;23.594;2024-01-25T05:44:36;95793.03;;;3.29;69.78
23172;BME280;11754;42.664;23.594;2024-01-25T05:47:01;95797.88;;;3.22;70.58
23172;BME280;11754;42.664;23.594;2024-01-25T05:49:27;95789.03;;;3.36;70.88
23172;BME280;11754;42.664;23.594;2024-01-25T05:51:52;95782.13;;;3.35;72.20
23172;BME280;11754;42.664;23.594;2024-01-25T05:54:17;95799.94;;;3.41;73.10
23172;BME280;11754;42.664;23.594;2024-01-25T05:56:42;95795.31;;;3.33;71.95
23172;BME280;11754;42.664;23.594;2024-01-25T05:59:08;95804.41;;;3.28;71.34
23172;BME280;11754;42.664;23.594;2024-01-25T06:01:33;95797.34;;;3.41;71.63
23172;BME280;11754;42.664;23.594;2024-01-25T06:03:58;95789.22;;;3.68;71.36
23172;BME280;11754;42.664;23.594;2024-01-25T06:06:23;95801.19;;;3.82;70.65
23172;BME280;11754;42.664;23.594;2024-01-25T06:08:48;95798.13;;;3.99;70.78
23172;BME280;11754;42.664;23.594;2024-01-25T06:11:14;95792.22;;;3.97;71.07
23172;BME280;11754;42.664;23.594;2024-01-25T06:13:39;95783.19;;;4.13;70.94
23172;BME280;11754;42.664;23.594;2024-01-25T06:16:04;95785.06;;;4.22;70.54
23172;BME280;11754;42.664;23.594;2024-01-25T06:18:30;95787.34;;;4.38;70.74
23172;BME280;11754;42.664;23.594;2024-01-25T06:20:55;95782.06;;;4.60;70.32
23172;BME280;11754;42.664;23.594;2024-01-25T06:23:20;95769.06;;;4.81;69.47
23172;BME280;11754;42.664;23.594;2024-01-25T06:25:46;95773.31;;;4.93;69.32
23172;BME280;11754;42.664;23.594;2024-01-25T06:28:11;95770.63;;;5.04;69.16
23172;BME280;11754;42.664;23.594;2024-01-25T06:30:36;95772.53;;;5.14;68.80
23172;BME280;11754;42.664;23.594;2024-01-25T06:33:01;95783.41;;;5.19;68.45
23172;BME280;11754;42.664;23.594;2024-01-25T06:35:27;95784.09;;;5.32;68.28
23172;BME280;11754;42.664;23.594;2024-01-25T06:37:52;95796.09;;;5.56;67.82
23172;BME280;11754;42.664;23.594;2024-01-25T06:40:17;95798.13;;;5.73;67.30
23172;BME280;11754;42.664;23.594;2024-01-25T06:42:42;95804.78;;;5.77;66.88
23172;BME280;11754;42.664;23.594;2024-01-25T06:45:09;95811.69;;;5.88;66.32
23172;BME280;11754;42.664;23.594;2024-01-25T06:47:35;95810.06;;;6.08;65.98
23172;BME280;11754;42.664;23.594;2024-01-25T06:50:00;95797.84;;;6.18;65.37
23172;BME280;11754;42.664;23.594;2024-01-25T06:52:26;95799.53;;;5.98;65.77
23172;BME280;11754;42.664;23.594;2024-01-25T06:54:51;95800.88;;;6.23;65.18
23172;BME280;11754;42.664;23.594;2024-01-25T06:57:17;95792.97;;;6.44;64.74
23172;BME280;11754;42.664;23.594;2024-01-25T06:59:42;95798.78;;;6.47;64.39
23172;BME280;11754;42.664;23.594;2024-01-25T07:02:07;95804.94;;;6.67;63.52
23172;BME280;11754;42.664;23.594;2024-01-25T07:04:32;95808.53;;;6.76;62.96
23172;BME280;11754;42.664;23.594;2024-01-25T07:06:58;95812.13;;;6.94;62.03
23172;BME280;11754;42.664;23.594;2024-01-25T07:09:25;95815.19;;;6.90;61.79
23172;BME280;11754;42.664;23.594;2024-01-25T07:11:50;95808.25;;;6.79;62.07
23172;BME280;11754;42.664;23.594;2024-01-25T07:14:15;95824.31;;;7.05;61.76
23172;BME280;11754;42.664;23.594;2024-01-25T07:16:40;95825.44;;;7.22;60.63
23172;BME280;11754;42.664;23.594;2024-01-25T07:19:06;95821.56;;;7.45;60.52
23172;BME280;11754;42.664;23.594;2024-01-25T07:21:31;95833.59;;;7.58;59.69
23172;BME280;11754;42.664;23.594;2024-01-25T07:23:59;95830.66;;;7.80;59.33
23172;BME280;11754;42.664;23.594;2024-01-25T07:26:24;95828.13;;;8.08;57.87
23172;BME280;11754;42.664;23.594;2024-01-25T07:28:49;95828.63;;;8.21;57.28
23172;BME280;11754;42.664;23.594;2024-01-25T07:31:18;95822.00;;;8.27;56.83
23172;BME280;11754;42.664;23.594;2024-01-25T07:33:45;95820.84;;;8.29;56.73
23172;BME280;11754;42.664;23.594;2024-01-25T07:36:10;95823.09;;;8.24;56.18
23172;BME280;11754;42.664;23.594;2024-01-25T07:38:35;95819.75;;;8.41;55.66
23172;BME280;11754;42.664;23.594;2024-01-25T07:41:01;95825.63;;;8.63;55.16
23172;BME280;11754;42.664;23.594;2024-01-25T07:43:26;95832.63;;;8.72;54.94
23172;BME280;11754;42.664;23.594;2024-01-25T07:45:51;95832.03;;;8.78;54.36
23172;BME280;11754;42.664;23.594;2024-01-25T07:48:19;95830.19;;;8.88;54.03
23172;BME280;11754;42.664;23.594;2024-01-25T07:50:44;95827.28;;;8.92;54.17
23172;BME280;11754;42.664;23.594;2024-01-25T07:53:10;95828.41;;;9.07;53.60
23172;BME280;11754;42.664;23.594;2024-01-25T07:55:37;95838.16;;;9.24;52.83
23172;BME280;11754;42.664;23.594;2024-01-25T07:58:02;95828.81;;;9.48;52.45
23172;BME280;11754;42.664;23.594;2024-01-25T08:00:27;95830.91;;;9.62;51.97
23172;BME280;11754;42.664;23.594;2024-01-25T08:02:53;95826.41;;;9.72;51.49
23172;BME280;11754;42.664;23.594;2024-01-25T08:05:18;95835.50;;;9.78;51.41
23172;BME280;11754;42.664;23.594;2024-01-25T08:07:44;95824.72;;;9.89;51.18
23172;BME280;11754;42.664;23.594;2024-01-25T08:10:10;95823.44;;;10.19;51.19
23172;BME280;11754;42.664;23.594;2024-01-25T08:12:35;95818.47;;;10.68;49.54
23172;BME280;11754;42.664;23.594;2024-01-25T08:15:00;95815.78;;;11.02;48.77
23172;BME280;11754;42.664;23.594;2024-01-25T08:17:25;95812.84;;;11.14;47.98
23172;BME280;11754;42.664;23.594;2024-01-25T08:19:51;95805.09;;;11.12;47.83
23172;BME280;11754;42.664;23.594;2024-01-25T08:22:16;95810.50;;;11.02;47.36
23172;BME280;11754;42.664;23.594;2024-01-25T08:24:41;95817.59;;;11.10;47.29
23172;BME280;11754;42.664;23.594;2024-01-25T08:27:06;95810.50;;;11.02;47.47
23172;BME280;11754;42.664;23.594;2024-01-25T08:29:35;95817.59;;;11.10;47.06
23172;BME280;11754;42.664;23.594;2024-01-25T08:32:02;95813.38;;;11.25;46.59
23172;BME280;11754;42.664;23.594;2024-01-25T08:34:27;95807.94;;;11.35;46.22
23172;BME280;11754;42.664;23.594;2024-01-25T08:36:52;95801.69;;;11.36;46.16
23172;BME280;11754;42.664;23.594;2024-01-25T08:39:18;95812.25;;;11.36;46.07
23172;BME280;11754;42.664;23.594;2024-01-25T08:41:43;95813.06;;;11.45;45.83
23172;BME280;11754;42.664;23.594;2024-01-25T08:44:10;95811.44;;;11.52;45.66
23172;BME280;11754;42.664;23.594;2024-01-25T08:46:35;95817.72;;;11.51;45.41
23172;BME280;11754;42.664;23.594;2024-01-25T08:49:01;95819.03;;;11.47;45.45
23172;BME280;11754;42.664;23.594;2024-01-25T08:51:26;95825.63;;;11.51;45.69
23172;BME280;11754;42.664;23.594;2024-01-25T08:53:51;95831.91;;;11.58;45.51
23172;BME280;11754;42.664;23.594;2024-01-25T08:56:17;95827.94;;;11.70;44.98
23172;BME280;11754;42.664;23.594;2024-01-25T08:58:42;95830.59;;;11.70;45.36
23172;BME280;11754;42.664;23.594;2024-01-25T09:01:07;95834.66;;;11.24;45.82
23172;BME280;11754;42.664;23.594;2024-01-25T09:03:33;95828.91;;;11.53;45.58
23172;BME280;11754;42.664;23.594;2024-01-25T09:05:58;95840.19;;;11.79;45.22
23172;BME280;11754;42.664;23.594;2024-01-25T09:08:23;95840.03;;;12.06;44.37
23172;BME280;11754;42.664;23.594;2024-01-25T09:10:49;95838.84;;;12.41;43.58
23172;BME280;11754;42.664;23.594;2024-01-25T09:13:14;95821.91;;;12.66;42.95
23172;BME280;11754;42.664;23.594;2024-01-25T09:15:39;95833.13;;;12.77;42.70
23172;BME280;11754;42.664;23.594;2024-01-25T09:18:04;95828.41;;;12.95;42.28
23172;BME280;11754;42.664;23.594;2024-01-25T09:20:30;95830.22;;;13.34;41.45
23172;BME280;11754;42.664;23.594;2024-01-25T09:22:55;95820.06;;;14.44;39.22
23172;BME280;11754;42.664;23.594;2024-01-25T09:25:20;95812.72;;;15.56;37.29
23172;BME280;11754;42.664;23.594;2024-01-25T09:27:46;95804.41;;;16.30;35.51
23172;BME280;11754;42.664;23.594;2024-01-25T09:30:12;95802.38;;;16.95;34.25
23172;BME280;11754;42.664;23.594;2024-01-25T09:32:37;95801.16;;;17.04;33.92
23172;BME280;11754;42.664;23.594;2024-01-25T09:35:02;95789.03;;;16.95;34.04
23172;BME280;11754;42.664;23.594;2024-01-25T09:37:28;95786.81;;;16.36;34.40
23172;BME280;11754;42.664;23.594;2024-01-25T09:39:53;95781.00;;;16.26;34.40
23172;BME280;11754;42.664;23.594;2024-01-25T09:42:18;95776.16;;;16.01;34.61
23172;BME280;11754;42.664;23.594;2024-01-25T09:44:44;95770.66;;;15.81;34.99
23172;BME280;11754;42.664;23.594;2024-01-25T09:47:09;95765.25;;;15.53;34.80
23172;BME280;11754;42.664;23.594;2024-01-25T09:49:35;95763.84;;;17.04;33.75
23172;BME280;11754;42.664;23.594;2024-01-25T09:52:04;95739.13;;;21.33;28.32
23172;BME280;11754;42.664;23.594;2024-01-25T09:54:33;95739.97;;;24.92;24.12
23172;BME280;11754;42.664;23.594;2024-01-25T09:56:59;95730.13;;;26.38;21.87
23172;BME280;11754;42.664;23.594;2024-01-25T09:59:24;95724.09;;;25.39;22.26
23172;BME280;11754;42.664;23.594;2024-01-25T10:01:49;95717.81;;;23.84;23.39
23172;BME280;11754;42.664;23.594;2024-01-25T10:04:15;95728.06;;;20.31;26.63
23172;BME280;11754;42.664;23.594;2024-01-25T10:06:44;95733.59;;;17.32;30.66
23172;BME280;11754;42.664;23.594;2024-01-25T10:09:09;95728.81;;;15.11;34.37
23172;BME280;11754;42.664;23.594;2024-01-25T10:11:35;95728.94;;;14.52;35.69
23172;BME280;11754;42.664;23.594;2024-01-25T10:14:01;95728.09;;;14.07;36.63
23172;BME280;11754;42.664;23.594;2024-01-25T10:16:26;95717.25;;;14.97;36.05
23172;BME280;11754;42.664;23.594;2024-01-25T10:18:51;95708.44;;;16.10;34.08
23172;BME280;11754;42.664;23.594;2024-01-25T10:21:17;95697.09;;;17.26;32.50
23172;BME280;11754;42.664;23.594;2024-01-25T10:23:45;95684.63;;;17.73;31.08
23172;BME280;11754;42.664;23.594;2024-01-25T10:26:12;95706.03;;;16.16;33.01
23172;BME280;11754;42.664;23.594;2024-01-25T10:28:37;95693.66;;;16.01;33.75
23172;BME280;11754;42.664;23.594;2024-01-25T10:31:03;95690.56;;;15.70;34.02
23172;BME280;11754;42.664;23.594;2024-01-25T10:33:32;95689.63;;;16.88;32.83
23172;BME280;11754;42.664;23.594;2024-01-25T10:35:58;95698.50;;;16.61;32.55
23172;BME280;11754;42.664;23.594;2024-01-25T10:38:30;95687.25;;;16.24;33.86
23172;BME280;11754;42.664;23.594;2024-01-25T10:40:55;95681.72;;;16.25;33.89
23172;BME280;11754;42.664;23.594;2024-01-25T10:43:22;95682.59;;;19.50;29.45
23172;BME280;11754;42.664;23.594;2024-01-25T10:45:48;95685.22;;;19.25;29.47
23172;BME280;11754;42.664;23.594;2024-01-25T10:48:13;95667.03;;;21.07;27.57
23172;BME280;11754;42.664;23.594;2024-01-25T10:50:39;95667.91;;;23.64;24.40
23172;BME280;11754;42.664;23.594;2024-01-25T10:53:05;95675.03;;;21.55;26.04
23172;BME280;11754;42.664;23.594;2024-01-25T10:55:31;95679.59;;;19.71;28.08
23172;BME280;11754;42.664;23.594;2024-01-25T10:57:56;95675.75;;;17.26;31.31
23172;BME280;11754;42.664;23.594;2024-01-25T11:00:22;95680.06;;;14.97;35.00
23172;BME280;11754;42.664;23.594;2024-01-25T11:02:47;95676.59;;;14.01;36.95
23172;BME280;11754;42.664;23.594;2024-01-25T11:05:15;95670.09;;;13.36;38.15
23172;BME280;11754;42.664;23.594;2024-01-25T11:07:50;95666.91;;;13.93;37.27
23172;BME280;11754;42.664;23.594;2024-01-25T11:10:19;95670.97;;;13.66;37.67
23172;BME280;11754;42.664;23.594;2024-01-25T11:12:54;95667.50;;;14.70;36.48
23172;BME280;11754;42.664;23.594;2024-01-25T11:17:57;95652.81;;;14.08;37.56
23172;BME280;11754;42.664;23.594;2024-01-25T11:20:23;95650.84;;;12.96;39.27
23172;BME280;11754;42.664;23.594;2024-01-25T11:22:59;95638.22;;;12.21;40.84
23172;BME280;11754;42.664;23.594;2024-01-25T11:25:27;95631.38;;;12.35;41.41
23172;BME280;11754;42.664;23.594;2024-01-25T11:27:54;95630.22;;;12.30;41.18
23172;BME280;11754;42.664;23.594;2024-01-25T11:30:19;95626.38;;;12.09;41.93
23172;BME280;11754;42.664;23.594;2024-01-25T11:32:48;95621.13;;;12.01;42.11
23172;BME280;11754;42.664;23.594;2024-01-25T11:35:14;95630.75;;;11.94;41.97
23172;BME280;11754;42.664;23.594;2024-01-25T11:37:50;95640.34;;;11.70;42.74
23172;BME280;11754;42.664;23.594;2024-01-25T11:40:19;95633.97;;;11.48;43.10
23172;BME280;11754;42.664;23.594;2024-01-25T11:42:47;95625.84;;;11.58;43.31
23172;BME280;11754;42.664;23.594;2024-01-25T11:45:13;95633.09;;;11.56;43.40
23172;BME280;11754;42.664;23.594;2024-01-25T11:47:39;95638.13;;;11.26;43.92
23172;BME280;11754;42.664;23.594;2024-01-25T11:50:05;95652.28;;;10.76;45.05
23172;BME280;11754;42.664;23.594;2024-01-25T11:52:31;95650.56;;;10.43;46.17
23172;BME280;11754;42.664;23.594;2024-01-25T11:55:02;95641.38;;;10.55;45.92
23172;BME280;11754;42.664;23.594;2024-01-25T11:57:32;95640.84;;;10.09;46.79
23172;BME280;11754;42.664;23.594;2024-01-25T11:59:58;95635.88;;;9.98;46.82
23172;BME280;11754;42.664;23.594;2024-01-25T12:02:24;95641.09;;;9.81;47.01
23172;BME280;11754;42.664;23.594;2024-01-25T12:04:49;95627.06;;;9.47;48.52
23172;BME280;11754;42.664;23.594;2024-01-25T12:07:16;95631.88;;;9.85;47.61
23172;BME280;11754;42.664;23.594;2024-01-25T12:09:41;95632.94;;;10.01;47.08
23172;BME280;11754;42.664;23.594;2024-01-25T12:12:08;95632.41;;;10.31;46.74
23172;BME280;11754;42.664;23.594;2024-01-25T12:14:34;95639.56;;;10.13;47.05
23172;BME280;11754;42.664;23.594;2024-01-25T12:17:00;95631.00;;;9.43;47.99
23172;BME280;11754;42.664;23.594;2024-01-25T12:19:25;95627.41;;;9.52;48.03
23172;BME280;11754;42.664;23.594;2024-01-25T12:21:50;95631.38;;;9.82;46.92
23172;BME280;11754;42.664;23.594;2024-01-25T12:24:16;95624.53;;;10.05;46.98
23172;BME280;11754;42.664;23.594;2024-01-25T12:26:41;95618.25;;;10.41;46.58
23172;BME280;11754;42.664;23.594;2024-01-25T12:29:06;95616.25;;;11.65;43.30
23172;BME280;11754;42.664;23.594;2024-01-25T12:31:33;95608.75;;;11.05;43.87
23172;BME280;11754;42.664;23.594;2024-01-25T12:33:58;95596.47;;;11.61;43.38
23172;BME280;11754;42.664;23.594;2024-01-25T12:36:24;95587.00;;;15.61;35.36
23172;BME280;11754;42.664;23.594;2024-01-25T12:38:49;95591.84;;;13.93;37.30
23172;BME280;11754;42.664;23.594;2024-01-25T12:41:14;95572.03;;;15.26;35.67
23172;BME280;11754;42.664;23.594;2024-01-25T12:43:40;95553.97;;;17.26;32.14
23172;BME280;11754;42.664;23.594;2024-01-25T12:46:05;95548.47;;;19.21;29.95
23172;BME280;11754;42.664;23.594;2024-01-25T12:48:31;95542.91;;;19.73;28.89
23172;BME280;11754;42.664;23.594;2024-01-25T12:50:56;95520.00;;;22.21;26.18